Latest Weather Observations for Yeppoon

IDQ60801

Issued at 11:05 pm EST Wednesday 17 September 2014 (issued every 30 minutes, with the page automatically refreshed every 10 minutes)

About weather observations | Map of weather stations | Latest weather observations for QLD | Other Formats
Station Details ID: 033294 Name: YEPPOON THE ESPLANADE Lat: -23.14 Lon: 150.75 Height: 5.5 m
Data from the previous 72 hours. | See also: Recent months at Yeppoon
Date/Time
EST
Temp
°C
App
Temp
°C
Dew
Point
Rel
Hum
%
Delta-T
°C
Wind Press
QNH
hPa
Press
MSL
hPa
Rain
since 9 am
mm
Dir
 
Spd
km/h
Gust
km/h
Spd
kts
Gust
kts
17/11:00pm 16.4 15.9 12.6 78 2.1 WNW 7 11 4 6 1016.0 1016.0 0.0
17/10:30pm 16.8 15.5 12.4 75 2.4 W 11 13 6 7 1015.8 1015.8 0.0
17/10:00pm 17.0 16.1 12.7 76 2.4 W 9 11 5 6 1015.9 1015.9 0.0
17/09:30pm 18.0 18.2 14.7 81 1.9 WSW 7 9 4 5 1015.6 1015.6 0.0
17/09:00pm 19.3 19.5 14.1 72 3.0 WNW 6 11 3 6 1015.7 1015.7 0.0
17/08:30pm 21.0 19.0 14.9 68 3.6 N 19 22 10 12 1015.5 1015.5 0.0
17/08:00pm 21.2 22.0 14.9 67 3.7 N 4 11 2 6 1015.2 1015.2 0.0
17/07:30pm 20.9 22.6 17.1 79 2.3 N 4 9 2 5 1014.7 1014.7 0.0
17/07:00pm 21.3 22.4 17.2 77 2.5 NNW 7 11 4 6 1014.4 1014.4 0.0
17/06:30pm 22.1 23.6 17.6 75 2.8 NNW 6 15 3 8 1014.1 1014.1 0.0
17/06:00pm 22.6 22.0 18.8 79 2.4 N 20 24 11 13 1013.4 1013.4 0.0
17/05:30pm 22.6 19.7 18.8 79 2.4 NNE 32 37 17 20 1013.2 1013.2 0.0
17/05:00pm 22.5 18.7 19.0 80 2.2 N 37 41 20 22 1013.0 1013.0 0.0
17/04:30pm 22.4 19.2 19.4 83 1.9 NNE 35 39 19 21 1012.9 1012.9 0.0
17/04:00pm 22.7 20.1 19.4 81 2.1 NNE 32 37 17 20 1013.0 1013.0 0.0
17/03:30pm 22.7 20.7 19.2 80 2.2 NNE 28 33 15 18 1013.0 1013.0 0.0
17/03:00pm 22.8 19.9 19.2 80 2.3 NNE 33 37 18 20 1013.2 1013.2 0.0
17/02:30pm 22.9 20.5 19.0 78 2.5 NNE 30 33 16 18 1013.5 1013.5 0.0
17/02:00pm 23.5 22.3 18.4 73 3.2 NNE 22 28 12 15 1013.9 1013.9 0.0
17/01:30pm 23.5 21.5 18.2 72 3.3 NNE 26 30 14 16 1014.2 1014.2 0.0
17/01:00pm 23.5 21.7 17.9 71 3.5 NNE 24 28 13 15 1014.8 1014.8 0.0
17/12:30pm 24.1 23.1 18.0 68 3.8 NNE 20 24 11 13 1015.3 1015.3 0.0
17/12:00pm 24.1 23.4 17.3 65 4.2 NNE 17 20 9 11 1015.7 1015.7 0.0
17/11:30am 23.6 23.3 18.3 72 3.3 NNE 17 22 9 12 1016.0 1016.0 0.0
17/11:00am 24.8 24.9 18.3 67 4.1 NE 15 19 8 10 1016.6 1016.6 0.0
17/10:30am 26.1 25.5 14.5 48 6.9 W 11 17 6 9 1017.0 1017.0 0.0
17/10:00am 24.4 24.2 15.6 58 5.3 WNW 11 19 6 10 1017.4 1017.4 0.0
17/09:30am 23.6 23.2 16.2 63 4.5 WNW 13 19 7 10 1017.9 1017.9 0.0
17/09:00am 23.0 22.8 16.8 68 3.8 WNW 13 20 7 11 1018.1 1018.1 -
17/08:30am 21.6 22.0 17.2 76 2.7 W 11 15 6 8 1018.2 1018.2 -
17/08:00am 19.7 20.3 16.7 83 1.8 SW 9 17 5 9 1018.0 1018.0 -
17/07:30am 17.8 18.4 15.9 89 1.1 W 7 11 4 6 1017.7 1017.7 -
17/07:00am 15.8 16.1 14.9 94 0.5 W 7 15 4 8 1017.4 1017.4 -
17/06:30am 14.2 13.6 13.5 96 0.4 W 9 13 5 7 1016.4 1016.4 -
17/06:00am 13.9 13.3 13.4 97 0.3 W 9 11 5 6 1016.0 1016.0 -
17/05:30am 13.5 13.0 12.8 95 0.4 W 7 9 4 5 1015.8 1015.8 -
17/05:00am 14.0 13.3 13.3 96 0.4 W 9 11 5 6 1015.5 1015.5 -
17/04:30am 14.5 14.0 13.8 96 0.4 W 9 11 5 6 1015.3 1015.3 -
17/04:00am 14.5 13.6 13.6 94 0.5 W 11 13 6 7 1014.9 1014.9 -
17/03:30am 15.0 14.6 14.1 94 0.5 W 9 11 5 6 1014.9 1014.9 -
17/03:00am 15.5 15.5 14.3 92 0.7 SSW 7 9 4 5 1014.9 1014.9 0.0
17/02:30am 16.6 16.9 14.9 90 1.0 NW 7 9 4 5 1015.0 1015.0 -
17/02:00am 17.4 17.8 15.2 87 1.3 WNW 7 13 4 7 1015.5 1015.5 -
17/01:30am 17.8 18.0 15.8 88 1.2 N 9 15 5 8 1015.5 1015.5 -
17/01:00am 18.1 18.3 15.7 86 1.4 N 9 13 5 7 1015.5 1015.5 -
17/12:30am 18.0 17.8 15.8 87 1.3 N 11 13 6 7 1015.8 1015.8 -
17/12:00am 18.2 18.9 16.0 87 1.3 N 7 11 4 6 1016.2 1016.2 -
 
Date/Time
EST
Temp
°C
App
Temp
°C
Dew
Point
Rel
Hum
%
Delta-T
°C
Wind Press
QNH
hPa
Press
MSL
hPa
Rain
since 9 am
mm
Dir
 
Spd
km/h
Gust
km/h
Spd
kts
Gust
kts
16/11:30pm 18.7 19.5 16.4 86 1.4 NNE 7 9 4 5 1016.5 1016.5 -
16/11:00pm 18.7 18.9 15.8 83 1.7 N 9 13 5 7 1016.8 1016.8 -
16/10:30pm 18.7 19.2 15.6 82 1.8 NNW 7 11 4 6 1016.8 1016.8 -
16/10:00pm 19.0 19.1 15.6 80 2.0 NNW 9 15 5 8 1016.8 1016.8 -
16/09:30pm 18.9 19.5 15.9 83 1.8 NW 7 11 4 6 1016.7 1016.7 -
16/09:00pm 18.5 19.4 16.0 85 1.5 WNW 6 11 3 6 1016.6 1016.6 -
16/08:30pm 19.5 19.4 16.0 80 2.1 NNW 11 19 6 10 1016.4 1016.4 -
16/08:00pm 19.7 19.7 16.2 80 2.1 N 11 17 6 9 1015.9 1015.9 -
16/07:30pm 20.1 18.6 16.8 81 2.0 N 20 26 11 14 1015.4 1015.4 -
16/07:00pm 20.7 18.6 17.1 80 2.2 N 24 32 13 17 1014.8 1014.8 -
16/06:30pm 21.1 18.8 17.7 81 2.1 NNE 26 32 14 17 1014.6 1014.6 -
16/06:00pm 21.5 18.7 17.3 77 2.6 NNE 28 32 15 17 1014.4 1014.4 -
16/05:30pm 21.5 18.7 17.4 77 2.5 NNE 28 32 15 17 1014.2 1014.2 -
16/05:00pm 21.7 18.9 17.3 76 2.7 NNE 28 32 15 17 1014.1 1014.1 -
16/04:30pm 21.9 19.8 17.2 74 2.9 NNE 24 28 13 15 1014.2 1014.2 -
16/04:00pm 22.0 20.3 17.3 74 2.9 NNE 22 26 12 14 1014.2 1014.2 -
16/03:30pm 22.6 21.5 17.4 72 3.2 NNE 19 24 10 13 1014.3 1014.3 -
16/02:30pm 23.1 22.0 17.3 70 3.6 NNE 19 22 10 12 1014.5 1014.5 0.0
16/02:00pm 23.2 22.4 17.0 68 3.8 NNE 17 20 9 11 1014.8 1014.8 0.0
16/01:30pm 23.2 22.2 17.6 71 3.5 NNE 19 24 10 13 1015.1 1015.1 0.0
16/01:00pm 23.5 23.0 16.8 66 4.1 NNE 15 19 8 10 1015.7 1015.7 0.0
16/12:30pm 24.2 24.1 16.9 63 4.5 NE 13 17 7 9 1016.2 1016.2 0.0
16/12:00pm 24.3 23.8 17.0 63 4.5 NE 15 19 8 10 1016.8 1016.8 0.0
16/11:30am 24.1 23.6 17.0 64 4.4 NE 15 19 8 10 1017.3 1017.3 0.0
16/11:00am 24.3 24.1 17.7 66 4.1 NE 15 19 8 10 1017.8 1017.8 0.0
16/10:30am 23.4 23.4 17.2 68 3.8 ENE 13 17 7 9 1018.3 1018.3 0.0
16/10:00am 24.2 24.3 17.4 65 4.2 NE 13 17 7 9 1018.7 1018.7 0.0
16/09:30am 23.5 24.1 16.8 66 4.1 NE 9 11 5 6 1018.8 1018.8 0.0
16/09:00am 22.8 23.5 16.2 66 4.0 ENE 7 11 4 6 1019.1 1019.1 0.0
16/08:30am 20.8 21.0 15.8 73 3.0 W 9 11 5 6 1019.1 1019.1 0.0
16/08:00am 18.7 18.8 15.6 82 1.8 WNW 9 13 5 7 1019.0 1019.0 0.0
16/07:30am 16.5 15.5 14.6 88 1.1 W 13 15 7 8 1018.9 1018.9 0.0
16/07:00am 14.1 13.1 13.4 96 0.4 W 11 15 6 8 1018.5 1018.5 0.0
16/06:30am 12.9 11.1 12.2 95 0.4 W 13 15 7 8 1018.3 1018.3 0.0
16/06:00am 12.4 10.5 11.8 96 0.3 W 13 17 7 9 1018.0 1018.0 0.0
16/05:30am 12.8 11.8 12.2 96 0.3 W 9 13 5 7 1017.8 1017.8 0.0
16/05:00am 13.0 12.0 12.4 96 0.3 W 9 15 5 8 1017.5 1017.5 0.0
16/04:30am 13.5 12.0 13.0 97 0.3 W 13 15 7 8 1016.9 1016.9 0.0
16/04:00am 13.7 12.6 13.2 97 0.3 W 11 15 6 8 1016.7 1016.7 0.0
16/03:30am 14.1 13.2 13.6 97 0.3 W 11 13 6 7 1016.4 1016.4 0.0
16/03:00am 14.1 13.1 13.4 96 0.4 W 11 15 6 8 1016.4 1016.4 0.0
16/02:30am 14.5 13.6 13.8 96 0.4 W 11 13 6 7 1016.4 1016.4 0.0
16/02:00am 14.7 14.3 14.0 96 0.4 W 9 13 5 7 1016.5 1016.5 0.0
16/01:30am 15.3 15.0 14.4 94 0.5 W 9 11 5 6 1016.7 1016.7 0.0
16/01:00am 15.4 14.7 14.3 93 0.6 W 11 13 6 7 1016.9 1016.9 0.0
16/12:30am 15.7 15.4 14.5 93 0.7 W 9 11 5 6 1017.0 1017.0 0.0
16/12:00am 16.1 15.8 14.5 90 0.9 W 9 13 5 7 1017.4 1017.4 0.0
 
Date/Time
EST
Temp
°C
App
Temp
°C
Dew
Point
Rel
Hum
%
Delta-T
°C
Wind Press
QNH
hPa
Press
MSL
hPa
Rain
since 9 am
mm
Dir
 
Spd
km/h
Gust
km/h
Spd
kts
Gust
kts
15/11:30pm 18.1 18.1 15.2 83 1.7 WNW 9 11 5 6 1017.4 1017.4 0.0
15/11:00pm 20.4 19.6 16.2 77 2.5 NNE 15 20 8 11 1017.3 1017.3 0.0
15/10:30pm 20.6 19.0 15.9 74 2.8 NNE 19 24 10 13 1017.3 1017.3 0.0
15/10:00pm 20.6 19.3 15.7 73 2.9 NNE 17 20 9 11 1017.5 1017.5 0.0
15/09:30pm 20.6 19.3 15.9 74 2.8 NNE 17 22 9 12 1017.6 1017.6 0.0
15/09:00pm 20.2 20.2 17.1 82 1.9 NE 13 19 7 10 1017.6 1017.6 0.0
15/08:30pm 20.1 19.9 17.5 85 1.6 NE 15 19 8 10 1017.5 1017.5 0.0
15/08:00pm 20.1 19.8 17.3 84 1.7 NE 15 19 8 10 1017.4 1017.4 0.0
15/07:30pm 20.1 20.0 17.0 82 1.9 NE 13 17 7 9 1017.2 1017.2 0.0
15/07:00pm 20.3 19.8 17.0 81 2.0 NE 15 19 8 10 1016.9 1016.9 0.0
15/06:30pm 20.2 20.2 17.1 82 1.9 NE 13 19 7 10 1016.7 1016.7 0.0
15/06:00pm 20.4 19.5 16.8 80 2.2 NE 17 22 9 12 1016.3 1016.3 0.0
15/05:30pm 20.8 20.4 16.1 74 2.8 ENE 13 17 7 9 1016.2 1016.2 0.0
15/05:00pm 21.3 20.9 16.3 73 3.0 NE 13 15 7 8 1016.0 1016.0 0.0
15/04:30pm 21.7 21.0 16.4 72 3.2 ENE 15 17 8 9 1015.8 1015.8 0.0
15/04:00pm 22.0 21.5 16.0 68 3.6 ENE 13 17 7 9 1015.7 1015.7 0.0
15/03:30pm 22.6 22.5 16.0 66 4.0 ENE 11 15 6 8 1015.7 1015.7 0.0
15/03:00pm 23.0 22.9 15.9 64 4.3 ENE 11 15 6 8 1015.8 1015.8 0.0
15/02:30pm 23.2 22.4 15.1 60 4.8 NE 13 17 7 9 1016.0 1016.0 0.0
15/02:00pm 23.5 23.1 16.3 64 4.4 NE 13 17 7 9 1016.1 1016.1 0.0
15/01:30pm 23.7 23.6 16.1 62 4.6 ENE 11 15 6 8 1016.5 1016.5 0.0
15/01:00pm 23.8 24.1 15.9 61 4.8 ENE 9 13 5 7 1016.9 1016.9 0.0
15/12:30pm 23.2 23.0 15.7 62 4.5 E 11 17 6 9 1017.4 1017.4 0.0
15/12:00pm 23.2 22.7 15.9 63 4.4 E 13 15 7 8 1018.0 1018.0 0.0
15/11:30am 22.9 21.9 15.6 63 4.4 E 15 17 8 9 1018.4 1018.4 0.0
15/11:00am 22.8 22.3 15.8 64 4.2 E 13 17 7 9 1018.8 1018.8 0.0
15/10:30am 22.4 21.6 16.1 67 3.8 E 15 19 8 10 1019.2 1019.2 0.0
15/10:00am 22.1 20.8 15.9 68 3.7 E 17 22 9 12 1019.4 1019.4 0.0
15/09:30am 22.5 21.5 15.6 65 4.1 E 15 19 8 10 1019.7 1019.7 0.0
15/09:00am 21.8 21.6 15.6 68 3.7 ESE 11 17 6 9 1019.8 1019.8 0.0
15/08:30am 20.7 20.5 15.6 72 3.0 SSE 11 17 6 9 1019.8 1019.8 0.0
15/08:00am 19.7 20.2 15.5 77 2.5 S 7 13 4 7 1019.6 1019.6 0.0
15/07:30am 18.2 18.2 15.1 82 1.8 SSW 9 13 5 7 1019.4 1019.4 0.0
15/07:00am 16.5 16.3 14.6 88 1.1 W 9 13 5 7 1019.3 1019.3 0.0
15/06:30am 15.4 14.7 14.2 92 0.7 W 11 13 6 7 1019.0 1019.0 0.0
15/06:00am 15.3 14.6 14.2 93 0.6 W 11 15 6 8 1018.9 1018.9 0.0
15/05:30am 15.6 15.3 14.4 93 0.7 W 9 13 5 7 1018.7 1018.7 0.0
15/05:00am 15.9 15.8 14.9 94 0.6 WSW 9 11 5 6 1018.6 1018.6 0.0
15/04:30am 16.3 16.6 15.1 93 0.7 WSW 7 9 4 5 1018.2 1018.2 0.0
15/04:00am 16.3 16.3 15.1 93 0.7 W 9 11 5 6 1018.0 1018.0 0.0
15/03:30am 16.6 16.5 15.0 90 0.9 WSW 9 11 5 6 1018.0 1018.0 0.0
15/03:00am 16.8 17.2 15.2 90 0.9 SSW 7 11 4 6 1018.0 1018.0 0.0
15/02:30am 17.3 17.7 15.2 87 1.2 S 7 9 4 5 1018.0 1018.0 0.0
15/02:00am 17.9 18.3 15.3 85 1.5 S 7 11 4 6 1018.4 1018.4 0.0
15/01:30am 19.6 19.4 15.7 78 2.3 SE 11 19 6 10 1018.7 1018.7 0.0
15/01:00am 20.1 19.9 15.7 76 2.6 ESE 11 17 6 9 1018.8 1018.8 0.0
15/12:30am 20.1 19.2 15.9 77 2.5 ESE 15 24 8 13 1019.0 1019.0 0.0
15/12:00am 20.2 19.4 16.0 77 2.5 ESE 15 20 8 11 1019.2 1019.2 0.0
 
Date/Time
EST
Temp
°C
App
Temp
°C
Dew
Point
Rel
Hum
%
Delta-T
°C
Wind Press
QNH
hPa
Press
MSL
hPa
Rain
since 9 am
mm
Dir
 
Spd
km/h
Gust
km/h
Spd
kts
Gust
kts
14/11:30pm 20.2 19.7 16.0 77 2.5 ESE 13 20 7 11 1019.5 1019.5 0.0

Other Formats:

Comma delimited format used in spreadsheet applications
http://www.bom.gov.au/fwo/IDQ60801/IDQ60801.94373.axf

JavaScript Object Notation format (JSON) in row-major order
http://www.bom.gov.au/fwo/IDQ60801/IDQ60801.94373.json